Time;durP1;ratioP1;P1;durP2;ratioP2;P2;SDS_P1;SDS_P2;PMS_P1;PMS_P2;Temp;Humidity;BMP_temperature;BMP_pressure;BME280_temperature;BME280_humidity;BME280_pressure;Samples;Min_cycle;Max_cycle;Signal;HPM_P1;HPM_P2
2021/06/03 00:00:22;;;;;;;6.10;4.40;;;16.90;79.50;;;;;;5067244;28;20717;-76
2021/06/03 00:02:49;;;;;;;5.45;4.35;;;16.90;80.50;;;;;;5057269;28;20017;-76
2021/06/03 00:05:15;;;;;;;6.10;4.15;;;16.90;80.80;;;;;;5057612;28;20036;-77
2021/06/03 00:07:41;;;;;;;5.70;4.43;;;16.80;80.00;;;;;;5058989;28;20043;-76
2021/06/03 00:10:08;;;;;;;6.07;4.50;;;16.80;79.20;;;;;;5068207;28;20033;-77
2021/06/03 00:12:34;;;;;;;9.88;4.85;;;16.80;79.30;;;;;;5066791;28;20035;-76
2021/06/03 00:14:59;;;;;;;5.28;4.43;;;16.80;80.70;;;;;;5067783;28;20024;-76
2021/06/03 00:17:25;;;;;;;7.68;4.70;;;16.70;80.50;;;;;;5069853;28;20372;-76
2021/06/03 00:19:51;;;;;;;9.05;4.28;;;16.60;81.10;;;;;;5071768;28;20017;-76
2021/06/03 00:22:16;;;;;;;9.95;4.78;;;16.60;81.60;;;;;;5069846;28;20039;-76
2021/06/03 00:24:42;;;;;;;6.93;4.38;;;16.50;84.90;;;;;;5057789;28;20406;-76
2021/06/03 00:27:07;;;;;;;10.40;4.95;;;16.40;83.20;;;;;;5069746;28;20036;-76
2021/06/03 00:29:33;;;;;;;6.75;4.85;;;16.40;84.30;;;;;;5070879;28;20032;-76
2021/06/03 00:31:59;;;;;;;5.50;4.63;;;16.30;86.80;;;;;;5061958;28;20036;-76
2021/06/03 00:34:24;;;;;;;7.85;4.68;;;16.30;87.80;;;;;;5050837;28;20028;-76
2021/06/03 00:36:50;;;;;;;6.15;4.78;;;16.20;84.70;;;;;;5059572;28;20036;-76
2021/06/03 00:39:15;;;;;;;6.00;4.43;;;16.10;83.20;;;;;;5066226;28;20538;-76
2021/06/03 00:41:41;;;;;;;7.28;4.53;;;16.20;85.40;;;;;;5066996;28;20013;-76
2021/06/03 00:44:06;;;;;;;5.80;4.65;;;16.10;86.10;;;;;;5066398;28;20567;-76
2021/06/03 00:46:32;;;;;;;7.10;4.70;;;16.00;87.70;;;;;;5066849;28;20027;-76
2021/06/03 00:48:57;;;;;;;6.82;4.85;;;15.90;86.30;;;;;;5064288;28;20385;-76
2021/06/03 00:51:24;;;;;;;7.55;4.30;;;15.80;89.20;;;;;;5071010;28;20029;-76
2021/06/03 00:53:50;;;;;;;5.43;4.57;;;15.70;87.80;;;;;;5068542;28;20376;-76
2021/06/03 00:56:15;;;;;;;5.32;4.38;;;15.70;87.70;;;;;;5070316;28;20020;-76
2021/06/03 00:58:41;;;;;;;11.30;5.57;;;15.70;87.00;;;;;;5069151;28;20382;-76
2021/06/03 01:01:07;;;;;;;6.60;4.82;;;15.80;86.00;;;;;;5068894;28;20037;-76
2021/06/03 01:03:33;;;;;;;11.80;4.80;;;15.80;84.50;;;;;;5063797;28;20020;-76
2021/06/03 01:06:04;;;;;;;6.45;4.78;;;15.80;85.20;;;;;;5070783;28;20032;-76
2021/06/03 01:08:39;;;;;;;7.47;5.20;;;15.90;84.30;;;;;;5059476;28;20820;-76
2021/06/03 01:11:23;;;;;;;7.93;4.90;;;15.80;86.10;;;;;;5069549;28;20111;-76
2021/06/03 01:14:09;;;;;;;7.22;5.55;;;15.70;85.20;;;;;;5060419;28;20058;-76
2021/06/03 01:16:36;;;;;;;6.95;5.28;;;15.70;84.80;;;;;;5069216;28;20103;-76
2021/06/03 01:19:07;;;;;;;9.60;5.35;;;15.70;85.70;;;;;;5052828;28;20060;-76
2021/06/03 01:21:45;;;;;;;7.03;4.85;;;15.60;86.00;;;;;;5070042;28;20024;-76
2021/06/03 01:24:32;;;;;;;9.68;5.43;;;15.60;86.90;;;;;;5064173;28;20036;-76
2021/06/03 01:27:02;;;;;;;10.45;5.25;;;15.50;88.60;;;;;;5055155;28;20033;-76
2021/06/03 01:29:36;;;;;;;7.50;5.25;;;15.30;89.10;;;;;;5063949;28;20028;-76
2021/06/03 01:32:02;;;;;;;7.22;4.78;;;15.30;90.00;;;;;;5057949;28;20033;-76
2021/06/03 01:34:28;;;;;;;8.35;4.95;;;15.10;90.10;;;;;;5052048;28;20031;-76
2021/06/03 01:36:54;;;;;;;8.05;5.00;;;15.00;90.60;;;;;;5062320;28;20013;-75
2021/06/03 01:39:20;;;;;;;7.82;5.68;;;14.90;90.90;;;;;;5065924;28;20025;-76
2021/06/03 01:41:46;;;;;;;10.15;5.63;;;14.80;93.20;;;;;;5069704;28;20326;-75
2021/06/03 01:44:12;;;;;;;8.82;5.18;;;14.70;93.90;;;;;;5062731;28;20401;-76
2021/06/03 01:46:38;;;;;;;9.85;5.40;;;14.50;93.00;;;;;;5063802;28;20112;-76
2021/06/03 01:49:05;;;;;;;9.90;5.30;;;14.50;93.20;;;;;;5066395;28;20041;-76
2021/06/03 01:51:31;;;;;;;6.57;5.25;;;14.40;94.50;;;;;;5059846;28;20102;-77
2021/06/03 01:53:57;;;;;;;8.43;5.63;;;14.30;95.80;;;;;;5063952;28;20041;-76
2021/06/03 01:56:23;;;;;;;8.77;5.32;;;14.20;96.00;;;;;;5062022;28;20360;-76
2021/06/03 01:58:49;;;;;;;7.07;5.20;;;14.20;95.10;;;;;;5068094;28;20025;-76
2021/06/03 02:01:15;;;;;;;8.23;5.50;;;14.10;97.70;;;;;;5048875;28;20025;-76
2021/06/03 02:03:41;;;;;;;9.73;5.50;;;14.00;97.30;;;;;;5066613;28;20028;-76
2021/06/03 02:06:07;;;;;;;8.38;5.50;;;13.90;97.10;;;;;;5065701;28;20032;-76
2021/06/03 02:08:33;;;;;;;8.98;5.35;;;13.80;99.10;;;;;;5063221;28;20028;-76
2021/06/03 02:10:59;;;;;;;9.18;5.65;;;13.70;97.80;;;;;;5068550;28;20021;-76
2021/06/03 02:13:41;;;;;;;10.32;6.03;;;13.70;99.80;;;;;;5068377;28;20386;-76
2021/06/03 02:16:10;;;;;;;7.30;5.47;;;13.60;99.90;;;;;;5065172;28;20025;-76
2021/06/03 02:18:48;;;;;;;8.23;5.32;;;13.50;99.90;;;;;;5068916;28;20416;-76
2021/06/03 02:21:14;;;;;;;6.75;5.07;;;13.40;99.90;;;;;;5066029;28;20028;-76
2021/06/03 02:23:39;;;;;;;8.57;5.55;;;13.40;99.90;;;;;;5067535;28;20139;-76
2021/06/03 02:26:05;;;;;;;8.80;5.80;;;13.40;99.90;;;;;;5068645;28;20115;-76
2021/06/03 02:28:32;;;;;;;8.30;5.50;;;13.30;99.90;;;;;;5064119;28;20020;-76
2021/06/03 02:30:58;;;;;;;7.40;5.25;;;13.30;99.90;;;;;;5066130;28;20065;-76
2021/06/03 02:33:25;;;;;;;9.63;5.93;;;13.20;99.90;;;;;;5067615;28;20039;-76
2021/06/03 02:35:51;;;;;;;7.13;5.80;;;13.10;99.90;;;;;;5068773;28;20069;-76
2021/06/03 02:38:24;;;;;;;8.93;5.45;;;13.10;99.90;;;;;;5058962;28;20510;-76
2021/06/03 02:40:52;;;;;;;8.43;5.72;;;13.10;99.90;;;;;;5067511;28;20498;-76
2021/06/03 02:43:18;;;;;;;11.50;6.35;;;13.00;99.90;;;;;;5065761;28;20036;-76
2021/06/03 02:45:43;;;;;;;9.20;5.90;;;12.90;99.90;;;;;;5064337;28;20025;-76
2021/06/03 02:48:09;;;;;;;6.70;5.70;;;12.90;99.90;;;;;;5062020;28;20020;-76
2021/06/03 02:50:34;;;;;;;9.15;5.47;;;12.90;99.90;;;;;;5062848;28;20024;-76
2021/06/03 02:53:00;;;;;;;8.35;6.30;;;12.90;99.90;;;;;;5060714;28;20110;-76
2021/06/03 02:55:26;;;;;;;10.38;6.65;;;12.80;99.90;;;;;;5059372;28;20116;-76
2021/06/03 02:57:52;;;;;;;9.88;6.35;;;12.80;99.90;;;;;;5056179;28;20090;-76
2021/06/03 03:00:21;;;;;;;8.35;5.78;;;12.80;99.90;;;;;;5066917;28;20024;-76
2021/06/03 03:02:47;;;;;;;8.10;5.72;;;12.70;99.90;;;;;;5064812;28;20520;-76
2021/06/03 03:05:13;;;;;;;8.10;5.78;;;12.70;99.90;;;;;;5065837;28;20064;-76
2021/06/03 03:07:39;;;;;;;9.50;6.68;;;12.70;99.90;;;;;;5067460;28;20067;-76
2021/06/03 03:10:10;;;;;;;9.13;6.45;;;12.70;99.90;;;;;;5062584;28;20036;-76
2021/06/03 03:12:35;;;;;;;7.00;5.72;;;12.70;99.90;;;;;;5065061;28;20032;-76
2021/06/03 03:15:01;;;;;;;9.90;6.18;;;12.80;99.90;;;;;;5062564;28;20372;-76
2021/06/03 03:17:26;;;;;;;11.57;6.10;;;12.90;99.90;;;;;;5067687;28;20028;-76
2021/06/03 03:19:52;;;;;;;11.00;6.55;;;12.80;99.90;;;;;;5066122;28;20095;-76
2021/06/03 03:22:17;;;;;;;11.98;6.18;;;12.90;99.90;;;;;;5062552;28;20564;-76
2021/06/03 03:24:43;;;;;;;9.98;5.78;;;12.90;99.90;;;;;;5063968;28;20025;-76
2021/06/03 03:27:08;;;;;;;8.27;6.00;;;12.90;99.90;;;;;;5067326;28;20449;-76
2021/06/03 03:29:34;;;;;;;10.70;5.65;;;13.00;99.90;;;;;;5068242;28;20086;-76
2021/06/03 03:31:59;;;;;;;9.68;5.90;;;13.20;99.90;;;;;;5071602;28;20056;-76
2021/06/03 03:34:25;;;;;;;11.15;5.97;;;13.40;99.90;;;;;;5070477;28;20029;-76
2021/06/03 03:36:50;;;;;;;8.15;5.80;;;13.50;99.90;;;;;;5069383;28;20056;-76
2021/06/03 03:39:16;;;;;;;10.25;6.35;;;13.60;99.00;;;;;;5070319;28;20036;-76
2021/06/03 03:41:41;;;;;;;11.50;5.88;;;13.70;98.10;;;;;;5068758;28;20378;-77
2021/06/03 03:44:07;;;;;;;10.38;6.15;;;13.80;97.60;;;;;;5069638;28;20024;-76
2021/06/03 03:46:32;;;;;;;9.80;5.95;;;13.90;97.30;;;;;;5061628;28;20017;-76
2021/06/03 03:48:58;;;;;;;10.82;6.00;;;14.00;97.10;;;;;;5066398;28;20031;-76
2021/06/03 03:51:25;;;;;;;11.10;5.80;;;14.00;96.00;;;;;;5062677;28;20056;-76
2021/06/03 03:53:51;;;;;;;7.20;5.53;;;14.10;96.00;;;;;;5063651;28;20059;-76
2021/06/03 03:56:17;;;;;;;7.28;5.75;;;14.10;95.00;;;;;;5067526;28;20028;-76
2021/06/03 03:58:43;;;;;;;10.93;5.55;;;14.20;94.60;;;;;;5061073;28;20027;-76
2021/06/03 04:01:10;;;;;;;8.63;5.75;;;14.30;94.50;;;;;;5064914;28;20060;-76
2021/06/03 04:03:36;;;;;;;7.15;5.18;;;14.30;94.40;;;;;;5068699;28;20433;-76
2021/06/03 04:06:02;;;;;;;9.32;5.78;;;14.30;93.90;;;;;;5067399;28;20387;-76
2021/06/03 04:08:28;;;;;;;10.85;5.97;;;14.40;93.30;;;;;;5069718;28;20032;-76
2021/06/03 04:10:54;;;;;;;8.77;5.40;;;14.40;93.40;;;;;;5070699;28;20032;-74
2021/06/03 04:13:19;;;;;;;8.23;5.50;;;14.50;93.00;;;;;;5067797;28;20029;-75
2021/06/03 04:15:45;;;;;;;6.40;5.35;;;14.50;93.50;;;;;;5069024;28;20029;-77
2021/06/03 04:18:11;;;;;;;8.63;5.72;;;14.60;93.50;;;;;;5067865;28;20127;-75
2021/06/03 04:20:36;;;;;;;7.97;5.43;;;14.60;93.00;;;;;;5070410;28;20115;-75
2021/06/03 04:23:02;;;;;;;9.60;5.57;;;14.60;92.70;;;;;;5066872;28;20455;-75
2021/06/03 04:25:28;;;;;;;7.28;5.13;;;14.70;92.20;;;;;;5074453;28;20040;-75
2021/06/03 04:27:54;;;;;;;11.02;5.82;;;14.70;92.50;;;;;;5067571;28;20059;-74
2021/06/03 04:30:23;;;;;;;11.55;5.65;;;14.80;91.60;;;;;;5069921;28;20024;-75
2021/06/03 04:32:50;;;;;;;7.13;5.20;;;14.80;91.70;;;;;;5064297;28;20134;-74
2021/06/03 04:35:18;;;;;;;8.90;5.50;;;14.90;91.60;;;;;;5070169;28;20566;-75
2021/06/03 04:37:48;;;;;;;9.82;5.65;;;14.90;91.90;;;;;;5059939;28;20105;-75
2021/06/03 04:40:17;;;;;;;8.10;5.10;;;15.00;91.90;;;;;;5068192;28;20531;-75
2021/06/03 04:42:44;;;;;;;11.90;5.80;;;15.00;91.40;;;;;;5070197;28;20079;-83
2021/06/03 04:45:12;;;;;;;8.95;5.90;;;15.10;91.60;;;;;;5059266;28;20450;-81
2021/06/03 04:47:38;;;;;;;7.97;5.57;;;15.10;91.50;;;;;;5071198;28;20036;-79
2021/06/03 04:50:04;;;;;;;10.27;6.15;;;15.10;90.80;;;;;;5066623;28;20475;-81
2021/06/03 04:52:29;;;;;;;6.53;5.43;;;15.20;90.70;;;;;;5068196;28;20051;-81
2021/06/03 04:54:56;;;;;;;8.45;5.38;;;15.20;90.80;;;;;;5062658;28;20563;-79
2021/06/03 04:57:23;;;;;;;10.88;5.88;;;15.30;91.10;;;;;;5068660;28;20104;-79
2021/06/03 04:59:48;;;;;;;9.93;4.90;;;15.30;90.40;;;;;;5069455;28;20055;-80
2021/06/03 05:02:14;;;;;;;8.05;5.85;;;15.40;90.30;;;;;;5062197;28;20049;-80
2021/06/03 05:04:40;;;;;;;10.13;5.05;;;15.40;90.40;;;;;;5062999;28;20039;-80
2021/06/03 05:07:05;;;;;;;8.57;5.90;;;15.40;89.80;;;;;;5067343;28;20028;-80
2021/06/03 05:09:31;;;;;;;7.75;5.03;;;15.50;89.70;;;;;;5065751;28;20109;-78
2021/06/03 05:11:56;;;;;;;9.55;5.30;;;15.60;89.30;;;;;;5066718;28;20123;-75
2021/06/03 05:14:25;;;;;;;10.65;5.47;;;15.60;89.20;;;;;;5060123;28;20475;-78
2021/06/03 05:16:51;;;;;;;9.07;5.43;;;15.70;89.80;;;;;;5067473;28;20032;-79
2021/06/03 05:19:16;;;;;;;8.40;5.38;;;15.70;89.30;;;;;;5068664;28;20027;-76
2021/06/03 05:21:42;;;;;;;7.55;5.05;;;15.70;87.90;;;;;;5066967;28;20422;-77
2021/06/03 05:24:07;;;;;;;7.88;5.43;;;15.80;89.00;;;;;;5067754;28;20058;-76
2021/06/03 05:26:32;;;;;;;12.43;5.93;;;15.80;88.00;;;;;;5063275;28;20029;-77
2021/06/03 05:28:58;;;;;;;8.30;5.13;;;15.90;87.40;;;;;;5063506;28;20032;-77
2021/06/03 05:31:24;;;;;;;10.15;5.50;;;15.90;86.10;;;;;;5062947;28;20127;-76
2021/06/03 05:33:49;;;;;;;12.95;4.78;;;16.00;88.50;;;;;;5065696;28;20558;-76
2021/06/03 05:36:15;;;;;;;7.63;4.85;;;16.00;87.10;;;;;;5062548;28;20072;-76
2021/06/03 05:38:40;;;;;;;8.57;5.32;;;16.10;87.40;;;;;;5063243;28;20040;-76
2021/06/03 05:41:06;;;;;;;10.80;5.45;;;16.10;87.50;;;;;;5062602;28;20475;-76
2021/06/03 05:43:31;;;;;;;9.38;4.70;;;16.10;86.90;;;;;;5043306;28;20020;-79
2021/06/03 05:45:57;;;;;;;7.70;5.03;;;16.20;85.70;;;;;;5061277;28;20063;-78
2021/06/03 05:48:22;;;;;;;11.45;5.00;;;16.30;85.60;;;;;;5061220;28;20067;-77
2021/06/03 05:50:48;;;;;;;8.52;5.00;;;16.30;85.60;;;;;;5068823;28;20020;-78
2021/06/03 05:53:13;;;;;;;8.75;4.68;;;16.40;85.20;;;;;;5069291;28;20045;-82
2021/06/03 05:55:39;;;;;;;12.00;5.57;;;16.40;84.30;;;;;;5067864;28;20059;-78
2021/06/03 05:58:05;;;;;;;10.77;5.15;;;16.50;84.50;;;;;;5061157;28;20037;-77
2021/06/03 06:00:32;;;;;;;6.47;4.68;;;16.50;84.30;;;;;;5064048;28;20024;-81
2021/06/03 06:03:03;;;;;;;9.55;5.32;;;16.60;83.10;;;;;;5064520;28;20028;-81
2021/06/03 06:08:15;;;;;;;7.72;4.38;;;16.70;80.90;;;;;;5070162;28;20063;-80
2021/06/03 06:10:41;;;;;;;11.90;4.72;;;16.70;82.10;;;;;;5070921;28;20060;-80
2021/06/03 06:13:07;;;;;;;13.00;5.10;;;16.80;81.70;;;;;;5069333;28;20043;-80
2021/06/03 06:15:35;;;;;;;11.45;4.80;;;16.90;82.20;;;;;;5060154;28;20029;-80
2021/06/03 06:18:00;;;;;;;10.05;4.35;;;17.00;81.60;;;;;;5067619;28;20021;-80
2021/06/03 06:20:26;;;;;;;8.27;4.75;;;17.00;81.10;;;;;;5056650;28;20040;-80
2021/06/03 06:22:54;;;;;;;7.90;4.40;;;17.10;80.60;;;;;;5059844;28;20041;-80
2021/06/03 06:25:19;;;;;;;9.32;4.38;;;17.20;78.80;;;;;;5068407;28;20108;-81
2021/06/03 06:27:49;;;;;;;11.82;4.40;;;17.20;80.00;;;;;;5069138;28;20120;-80
2021/06/03 06:30:16;;;;;;;6.80;4.07;;;17.30;79.10;;;;;;5067982;28;20032;-80
2021/06/03 06:32:41;;;;;;;10.32;4.78;;;17.40;78.30;;;;;;5057482;28;20028;-80
2021/06/03 06:35:08;;;;;;;10.98;4.13;;;17.40;79.00;;;;;;5066262;28;20036;-81
2021/06/03 06:37:34;;;;;;;10.98;4.57;;;17.50;78.00;;;;;;5065094;28;20056;-79
2021/06/03 06:39:59;;;;;;;10.73;4.50;;;17.60;78.40;;;;;;5065475;28;20045;-78
2021/06/03 06:42:30;;;;;;;11.13;4.45;;;17.70;78.50;;;;;;5061488;28;20479;-79
2021/06/03 06:44:56;;;;;;;9.15;4.53;;;17.70;78.60;;;;;;5067727;28;20094;-78
2021/06/03 06:47:21;;;;;;;6.82;4.35;;;17.90;76.60;;;;;;5060173;28;20028;-76
2021/06/03 06:50:12;;;;;;;5.68;3.90;;;18.00;76.90;;;;;;5061802;28;20071;-77
2021/06/03 06:52:37;;;;;;;6.13;4.53;;;18.10;75.70;;;;;;5057967;28;20423;-76
2021/06/03 06:55:05;;;;;;;8.02;4.00;;;18.10;76.40;;;;;;5063960;28;20071;-77
2021/06/03 06:57:32;;;;;;;6.00;4.40;;;18.10;74.50;;;;;;5065388;28;20041;-76
2021/06/03 06:59:57;;;;;;;5.43;3.50;;;18.20;73.30;;;;;;5068597;28;20028;-76
2021/06/03 07:02:23;;;;;;;7.20;4.45;;;18.30;72.10;;;;;;5064830;28;20528;-77
2021/06/03 07:04:48;;;;;;;6.45;3.88;;;18.40;72.90;;;;;;5068318;28;20021;-77
2021/06/03 07:07:14;;;;;;;6.60;3.90;;;18.50;71.60;;;;;;5065541;28;20249;-77
2021/06/03 07:09:40;;;;;;;8.77;4.05;;;18.50;73.10;;;;;;5066118;28;20033;-77
2021/06/03 07:12:06;;;;;;;6.70;3.85;;;18.60;73.70;;;;;;5051654;28;20112;-76
2021/06/03 07:14:31;;;;;;;7.82;3.78;;;18.60;72.90;;;;;;5060269;28;20379;-76
2021/06/03 07:16:57;;;;;;;6.18;3.90;;;18.70;72.40;;;;;;5061800;28;20086;-77
2021/06/03 07:19:22;;;;;;;6.95;3.95;;;18.80;73.00;;;;;;5057701;28;20056;-77
2021/06/03 07:21:48;;;;;;;6.00;3.95;;;19.00;74.10;;;;;;5047571;28;20090;-75
2021/06/03 07:24:13;;;;;;;11.35;4.00;;;19.00;71.30;;;;;;5067452;28;20044;-78
2021/06/03 07:26:39;;;;;;;5.93;4.03;;;19.10;72.40;;;;;;5068476;28;20479;-77
2021/06/03 07:29:05;;;;;;;7.28;3.97;;;19.20;70.90;;;;;;5064496;28;20033;-77
2021/06/03 07:31:34;;;;;;;6.15;4.20;;;19.20;71.80;;;;;;5061273;28;20028;-77
2021/06/03 07:34:01;;;;;;;4.50;3.83;;;19.20;71.20;;;;;;5061950;28;20091;-77
2021/06/03 07:36:27;;;;;;;7.55;3.67;;;19.30;70.10;;;;;;5064622;28;20247;-77
2021/06/03 07:38:52;;;;;;;5.38;3.50;;;19.30;67.10;;;;;;5067360;28;20048;-77
2021/06/03 07:41:17;;;;;;;6.30;3.63;;;19.40;69.40;;;;;;5068551;28;20399;-77
2021/06/03 07:43:43;;;;;;;11.35;3.85;;;19.40;67.00;;;;;;5062441;28;20085;-77
2021/06/03 07:46:09;;;;;;;6.43;3.72;;;19.40;69.10;;;;;;5063854;28;20024;-82
2021/06/03 07:48:34;;;;;;;4.53;3.40;;;19.60;68.20;;;;;;5067248;28;20032;-79
2021/06/03 07:50:59;;;;;;;5.95;3.90;;;19.60;68.70;;;;;;5067153;28;20029;-78
2021/06/03 07:53:25;;;;;;;8.38;3.75;;;19.70;67.70;;;;;;5064112;28;20036;-74
2021/06/03 07:55:50;;;;;;;8.35;4.00;;;19.80;68.40;;;;;;5068122;28;20098;-75
2021/06/03 07:58:16;;;;;;;5.90;3.75;;;19.90;65.90;;;;;;5058717;28;20021;-76
2021/06/03 08:00:43;;;;;;;12.50;3.70;;;19.90;67.40;;;;;;5066859;28;20028;-76
2021/06/03 08:03:09;;;;;;;5.63;3.42;;;20.00;65.60;;;;;;5053223;28;21310;-76
2021/06/03 08:05:45;;;;;;;10.00;3.72;;;20.00;65.30;;;;;;5066496;28;20036;-76
2021/06/03 08:08:11;;;;;;;5.88;3.78;;;20.10;61.90;;;;;;5062599;28;20123;-78
2021/06/03 08:10:39;;;;;;;7.05;3.20;;;20.20;61.90;;;;;;5065000;28;20099;-74
2021/06/03 08:13:05;;;;;;;4.88;3.38;;;20.20;65.40;;;;;;5065784;28;20390;-76
2021/06/03 08:15:31;;;;;;;4.60;3.45;;;20.30;65.40;;;;;;5066361;28;20371;-77
2021/06/03 08:17:58;;;;;;;6.93;3.30;;;20.40;63.60;;;;;;5068854;28;20940;-77
2021/06/03 08:20:28;;;;;;;8.65;3.50;;;20.60;64.30;;;;;;5066821;28;20021;-77
2021/06/03 08:22:53;;;;;;;4.03;3.30;;;20.60;64.10;;;;;;5064933;28;20059;-76
2021/06/03 08:25:19;;;;;;;4.55;3.42;;;20.70;62.30;;;;;;5064551;28;20446;-77
2021/06/03 08:27:45;;;;;;;4.38;3.15;;;20.70;59.30;;;;;;5062890;28;20669;-77
2021/06/03 08:30:13;;;;;;;7.25;3.55;;;20.80;61.00;;;;;;5066055;28;20048;-77
2021/06/03 08:32:39;;;;;;;11.38;3.38;;;20.90;60.80;;;;;;5057390;28;20032;-77
2021/06/03 08:35:05;;;;;;;4.65;2.97;;;21.00;58.80;;;;;;5068390;28;20056;-77
2021/06/03 08:37:31;;;;;;;5.88;3.17;;;21.10;60.80;;;;;;5070695;28;20013;-76
2021/06/03 08:39:56;;;;;;;6.95;3.63;;;21.10;60.10;;;;;;5068526;28;20028;-78
2021/06/03 08:42:22;;;;;;;4.00;3.08;;;21.20;60.00;;;;;;5068436;28;20070;-77
2021/06/03 08:44:48;;;;;;;4.93;3.28;;;21.30;58.50;;;;;;5064995;28;20479;-77
2021/06/03 08:47:13;;;;;;;7.10;3.78;;;21.30;58.50;;;;;;5050269;28;20067;-77
2021/06/03 08:49:39;;;;;;;5.35;3.67;;;21.40;59.20;;;;;;5060322;28;20040;-76
2021/06/03 08:52:07;;;;;;;5.38;3.15;;;21.40;58.60;;;;;;5051632;28;20052;-77
2021/06/03 08:54:35;;;;;;;11.05;3.40;;;21.60;60.30;;;;;;5059267;28;20124;-76
2021/06/03 08:57:04;;;;;;;6.57;3.10;;;21.60;56.40;;;;;;5060201;28;20036;-76
2021/06/03 08:59:30;;;;;;;5.15;2.80;;;21.70;59.20;;;;;;5053981;28;20025;-78
2021/06/03 09:01:55;;;;;;;5.72;3.00;;;21.80;57.70;;;;;;5060114;28;20368;-77
2021/06/03 09:04:21;;;;;;;3.30;3.00;;;21.90;57.20;;;;;;5067160;28;20048;-77
2021/06/03 09:06:46;;;;;;;5.18;3.05;;;21.90;57.10;;;;;;5069636;28;20510;-82
2021/06/03 09:09:13;;;;;;;7.75;3.63;;;22.00;57.00;;;;;;5066524;28;20033;-76
2021/06/03 09:11:40;;;;;;;7.80;3.38;;;22.00;57.60;;;;;;5051998;28;20531;-79
2021/06/03 09:14:07;;;;;;;3.83;3.22;;;22.10;55.40;;;;;;5053063;28;20025;-79
2021/06/03 09:16:35;;;;;;;4.07;3.17;;;22.20;55.80;;;;;;5061473;28;20036;-79
2021/06/03 09:19:12;;;;;;;3.67;2.97;;;22.20;57.50;;;;;;5065214;28;20037;-79
2021/06/03 09:21:45;;;;;;;4.72;3.22;;;22.30;56.40;;;;;;5067251;28;20777;-80
2021/06/03 09:24:13;;;;;;;3.33;2.95;;;22.30;54.50;;;;;;5069992;28;20039;-79
2021/06/03 09:26:45;;;;;;;5.72;3.50;;;22.40;54.80;;;;;;5059013;28;20115;-79
2021/06/03 09:29:32;;;;;;;4.93;2.70;;;22.50;55.10;;;;;;5061407;28;20115;-80
2021/06/03 09:32:11;;;;;;;5.97;2.90;;;22.50;55.40;;;;;;5067272;28;20049;-80
2021/06/03 09:34:39;;;;;;;6.97;2.90;;;22.50;56.00;;;;;;5064274;28;20033;-79
2021/06/03 09:37:07;;;;;;;6.55;2.90;;;22.50;56.30;;;;;;5058509;28;20036;-82
2021/06/03 09:39:44;;;;;;;3.20;2.88;;;22.60;55.60;;;;;;5058067;28;20094;-81
2021/06/03 09:42:19;;;;;;;4.07;2.95;;;22.70;54.60;;;;;;5066904;28;20107;-80
2021/06/03 09:44:53;;;;;;;4.50;2.80;;;22.80;54.20;;;;;;5054093;28;20032;-80
2021/06/03 09:47:23;;;;;;;3.75;2.50;;;22.80;53.60;;;;;;5056680;28;20487;-79
2021/06/03 09:49:55;;;;;;;7.22;2.95;;;22.90;54.50;;;;;;5058249;28;20039;-79
2021/06/03 09:52:24;;;;;;;6.50;2.70;;;22.90;55.20;;;;;;5050869;28;20045;-79
2021/06/03 09:54:55;;;;;;;3.80;2.60;;;23.00;53.60;;;;;;5058940;28;20066;-83
2021/06/03 09:57:27;;;;;;;4.47;2.97;;;23.10;55.30;;;;;;5057340;28;20024;-80
2021/06/03 10:00:22;;;;;;;3.25;2.80;;;23.00;54.40;;;;;;5061368;28;20087;-79
2021/06/03 10:02:55;;;;;;;3.60;2.50;;;23.00;53.90;;;;;;5063876;28;20080;-79
2021/06/03 10:05:22;;;;;;;4.30;2.78;;;23.00;55.00;;;;;;5063396;28;20035;-79
2021/06/03 10:08:00;;;;;;;6.15;3.13;;;23.10;54.40;;;;;;5069542;28;20033;-79
2021/06/03 10:10:27;;;;;;;5.43;2.67;;;23.10;52.30;;;;;;5063605;28;20039;-80
2021/06/03 10:12:53;;;;;;;5.15;2.88;;;23.20;52.50;;;;;;5060982;28;20025;-80
2021/06/03 10:15:25;;;;;;;16.58;3.10;;;23.20;54.50;;;;;;5059781;28;20028;-80
2021/06/03 10:18:04;;;;;;;4.60;3.08;;;23.10;54.20;;;;;;5054169;28;20024;-79
2021/06/03 10:20:41;;;;;;;8.82;3.08;;;23.30;53.40;;;;;;5052403;28;20236;-81
2021/06/03 10:23:11;;;;;;;6.57;3.03;;;23.30;53.80;;;;;;5058188;28;20039;-77
2021/06/03 10:25:37;;;;;;;2.90;2.60;;;23.50;54.40;;;;;;5064204;28;20037;-83
2021/06/03 10:28:10;;;;;;;8.00;3.28;;;23.50;54.40;;;;;;5054587;28;20028;-77
2021/06/03 10:30:47;;;;;;;5.93;3.10;;;23.60;52.10;;;;;;5059581;28;20054;-75
2021/06/03 10:33:18;;;;;;;7.15;3.30;;;23.60;52.60;;;;;;5060177;28;20028;-76
2021/06/03 10:35:47;;;;;;;3.30;2.60;;;23.80;53.90;;;;;;5055441;28;20106;-75
2021/06/03 10:38:13;;;;;;;4.88;2.90;;;23.80;52.00;;;;;;5058786;28;20079;-76
2021/06/03 10:40:48;;;;;;;5.00;2.72;;;23.90;52.50;;;;;;5056387;28;20508;-78
2021/06/03 10:43:22;;;;;;;6.15;3.00;;;24.10;50.90;;;;;;5058050;28;20017;-77
2021/06/03 10:45:48;;;;;;;3.83;2.90;;;24.10;51.90;;;;;;5043669;28;20107;-78
2021/06/03 10:48:14;;;;;;;6.90;3.00;;;24.20;53.40;;;;;;5067549;28;20167;-76
2021/06/03 10:50:49;;;;;;;5.65;3.10;;;24.30;53.10;;;;;;5055477;28;20062;-75
2021/06/03 10:53:20;;;;;;;3.92;2.80;;;24.30;50.10;;;;;;5057753;28;20051;-77
2021/06/03 10:56:06;;;;;;;6.32;3.00;;;24.50;51.30;;;;;;5063137;28;20509;-77
2021/06/03 10:58:34;;;;;;;3.63;2.88;;;24.50;50.50;;;;;;5065606;28;20055;-77
2021/06/03 11:01:06;;;;;;;3.92;3.10;;;24.70;50.60;;;;;;5067741;28;20029;-77
2021/06/03 11:03:51;;;;;;;5.53;2.83;;;24.90;49.20;;;;;;5053832;28;20499;-77
2021/06/03 11:06:21;;;;;;;5.05;2.80;;;25.10;50.00;;;;;;5062454;28;20028;-77
2021/06/03 11:08:57;;;;;;;3.05;2.60;;;25.20;48.20;;;;;;5065284;28;20021;-76
2021/06/03 11:11:22;;;;;;;4.78;2.90;;;25.40;49.40;;;;;;5059305;28;20040;-76
2021/06/03 11:13:48;;;;;;;3.83;2.90;;;25.60;48.20;;;;;;5065639;28;20451;-77
2021/06/03 11:16:21;;;;;;;5.43;2.78;;;25.70;48.70;;;;;;5065753;28;20017;-77
2021/06/03 11:18:49;;;;;;;3.70;2.85;;;26.00;48.10;;;;;;5065444;28;20016;-78
2021/06/03 11:21:33;;;;;;;5.63;2.85;;;26.10;48.70;;;;;;5067095;28;20024;-77
2021/06/03 11:24:04;;;;;;;8.48;3.20;;;26.40;48.00;;;;;;5063091;28;20052;-77
2021/06/03 11:26:38;;;;;;;4.95;3.10;;;26.70;47.10;;;;;;5064880;28;20064;-77
2021/06/03 11:29:14;;;;;;;4.05;3.00;;;26.80;47.90;;;;;;5057442;28;20021;-76
2021/06/03 11:31:46;;;;;;;3.72;2.88;;;26.90;46.50;;;;;;5062750;28;20074;-77
2021/06/03 11:34:22;;;;;;;4.03;2.83;;;27.00;45.90;;;;;;5064690;28;20390;-75
2021/06/03 11:37:00;;;;;;;6.32;3.10;;;27.70;46.00;;;;;;5049502;28;20037;-76
2021/06/03 11:39:31;;;;;;;7.50;2.83;;;28.30;42.10;;;;;;5058518;28;20694;-76
2021/06/03 11:42:25;;;;;;;3.95;2.75;;;29.10;41.70;;;;;;5065327;28;20061;-77
2021/06/03 11:45:04;;;;;;;4.97;3.00;;;29.10;41.10;;;;;;5067444;28;20601;-78
2021/06/03 11:47:41;;;;;;;4.22;3.05;;;28.80;40.80;;;;;;5062657;28;20025;-77
2021/06/03 11:50:29;;;;;;;8.95;2.80;;;29.40;43.20;;;;;;5063492;28;20046;-77
2021/06/03 11:53:02;;;;;;;6.70;3.05;;;30.10;41.30;;;;;;5057253;28;20075;-76
2021/06/03 11:55:54;;;;;;;3.45;2.78;;;30.00;39.70;;;;;;5058976;28;20033;-78
2021/06/03 11:58:30;;;;;;;5.25;2.75;;;30.20;38.70;;;;;;5066342;28;20509;-76
2021/06/03 12:01:15;;;;;;;2.97;2.67;;;30.90;39.30;;;;;;5061353;28;20033;-76
2021/06/03 12:04:04;;;;;;;4.13;2.67;;;31.10;37.50;;;;;;5060420;28;20025;-77
2021/06/03 12:06:29;;;;;;;7.70;3.45;;;31.30;39.30;;;;;;5060948;28;20025;-76
2021/06/03 12:08:57;;;;;;;4.72;2.72;;;31.90;37.50;;;;;;5073499;28;20025;-77
2021/06/03 12:11:44;;;;;;;6.35;2.70;;;31.40;37.00;;;;;;5062481;28;20021;-77
2021/06/03 12:14:16;;;;;;;6.97;3.10;;;31.50;36.80;;;;;;5060344;28;20029;-77
2021/06/03 12:16:47;;;;;;;3.72;2.45;;;32.20;37.30;;;;;;5056623;28;20060;-77
2021/06/03 12:19:24;;;;;;;10.27;2.88;;;33.30;36.20;;;;;;5063281;28;20025;-77
2021/06/03 12:21:53;;;;;;;2.97;2.53;;;33.90;34.10;;;;;;5058611;28;20039;-77
2021/06/03 12:24:42;;;;;;;3.10;2.67;;;34.10;33.10;;;;;;5060095;28;20032;-80
2021/06/03 12:27:25;;;;;;;2.80;2.60;;;34.30;32.20;;;;;;5067152;28;20395;-81
2021/06/03 12:29:52;;;;;;;5.78;2.67;;;34.80;31.80;;;;;;5056308;28;20033;-78
2021/06/03 12:32:20;;;;;;;7.85;3.35;;;35.40;30.90;;;;;;5059557;28;20078;-78
2021/06/03 12:34:46;;;;;;;4.78;2.63;;;34.90;30.60;;;;;;5065053;28;20056;-78
2021/06/03 12:37:31;;;;;;;5.75;2.67;;;35.20;31.00;;;;;;5063474;28;20375;-76
2021/06/03 12:39:58;;;;;;;9.02;3.03;;;35.30;30.00;;;;;;5060529;28;20047;-75
2021/06/03 12:42:27;;;;;;;5.93;2.95;;;35.20;30.40;;;;;;5045606;28;20098;-77
2021/06/03 12:44:59;;;;;;;6.97;3.35;;;35.40;30.40;;;;;;5058710;28;20028;-77
2021/06/03 12:47:30;;;;;;;6.10;3.10;;;35.70;29.10;;;;;;5065779;28;20031;-81
2021/06/03 12:50:10;;;;;;;6.35;2.88;;;35.70;29.90;;;;;;5063155;28;20029;-79
2021/06/03 12:52:36;;;;;;;3.53;2.92;;;35.90;31.00;;;;;;5066489;28;20483;-85
2021/06/03 12:55:03;;;;;;;6.20;3.25;;;35.70;30.30;;;;;;5062203;28;20053;-79